Anderson Regional Airport
KAND : now visible

Airfield :











YOU CAN JOIN US ON...

 
LOGIN :

Register | Disclaimer

   EN    FR    IT 

 









Legend :    VFR   Marginal VFR   IFR   Intensive IFR   Very Intensive IFR
Visi :
Ceiling :
>= 8 km
>= 3000ft
5 to 8 km
1000 to 3000 ft
1500m to 5 km
500 to 1000 ft
800 to 1500m
200 to 500 ft
< 800m
< 200 ft
Symbols :   Thunderstorms  Fog  Heavy snow  Heavy precipitations  Wind > 20 kt






- Airport Elevation : 782 ft


KAND - Anderson Regional

CURRENT METAR :
  • 192256Z AUTO 24008KT 10SM OVC075 14/03 A2987 RMK AO2 SLP111 T01390028

EXPIRED METARs :
  • 192156Z AUTO 25006KT 10SM OVC070 15/02 A2984 RMK AO2 SLP103 T01500017
  • 192056Z AUTO 24008KT 10SM CLR 16/01 A2983 RMK AO2 SLP097 T01560011 55008
  • 191956Z AUTO 25008KT 10SM FEW080 15/03 A2982 RMK AO2 SLP094 T01500033

TAF KAND
Valid from the 19 at 16:00 until the 20 at 12:00 UTC


191601Z 1916/2012 30004KT P6SM SCT019 BKN070
TEMPO 1916/1918 BKN019
FM191800 26006KT P6SM SCT070 BKN250
FM200800 28003KT P6SM FEW250



MET'MAP, your aeronautical weather chart ! - Copyright ORBIFLY December 2007 - Disclaimer

ORBIFLY MET'MAP TEAM :

Programming & Development : Alexandra Zaïnal
Concept & Development : Baudouin d'Aumeries
Co-Development & Prog : Marc-Olivier Méhu
Technical & hardware support : Manuel Goepfert

Contact : metmap@orbifly.com




SOURCES & CREDITS :

   NOAA       Earth
Advisory